Time;durP1;ratioP1;P1;durP2;ratioP2;P2;SDS_P1;SDS_P2;PMS_P1;PMS_P2;Temp;Humidity;BMP_temperature;BMP_pressure;BME280_temperature;BME280_humidity;BME280_pressure;Samples;Min_cycle;Max_cycle;Signal;HPM_P1;HPM_P2
2023/10/01 00:00:08;;;;;;;10.72;5.72;;;17.30;99.90;;;;;;1824308;79;21167;-84
2023/10/01 00:02:56;;;;;;;12.18;6.10;;;17.30;99.90;;;;;;1824319;79;21135;-83
2023/10/01 00:05:50;;;;;;;11.70;6.45;;;17.40;99.90;;;;;;1824180;79;21177;-83
2023/10/01 00:08:42;;;;;;;10.18;5.62;;;17.40;99.90;;;;;;1824093;79;21111;-84
2023/10/01 00:11:34;;;;;;;10.85;6.00;;;17.40;99.90;;;;;;1824195;79;21245;-84
2023/10/01 00:14:26;;;;;;;12.90;5.87;;;17.50;99.90;;;;;;1824183;79;21067;-84
2023/10/01 00:17:18;;;;;;;10.32;5.10;;;17.50;99.90;;;;;;1824058;79;21229;-83
2023/10/01 00:20:17;;;;;;;9.58;5.50;;;17.40;99.90;;;;;;1824113;79;21118;-83
2023/10/01 00:25:45;;;;;;;10.50;5.60;;;17.40;99.90;;;;;;1958050;72;27980;-83
2023/10/01 00:28:37;;;;;;;12.35;5.65;;;17.50;99.90;;;;;;1904613;75;21061;-83
2023/10/01 00:31:28;;;;;;;9.68;5.40;;;17.50;99.90;;;;;;1904457;75;21107;-84
2023/10/01 00:34:20;;;;;;;7.42;4.72;;;17.40;99.90;;;;;;1868412;77;21151;-83
2023/10/01 00:37:12;;;;;;;9.05;4.95;;;17.50;99.90;;;;;;1904869;75;21072;-83
2023/10/01 00:40:05;;;;;;;11.10;5.37;;;17.50;99.90;;;;;;1904672;75;21160;-83
2023/10/01 00:42:58;;;;;;;8.48;5.25;;;17.50;99.90;;;;;;1904712;75;21535;-83
2023/10/01 00:45:50;;;;;;;9.50;4.97;;;17.50;99.90;;;;;;1904736;75;21098;-83
2023/10/01 00:48:42;;;;;;;8.43;5.03;;;17.50;99.90;;;;;;1904470;75;21044;-83
2023/10/01 00:51:43;;;;;;;10.23;4.90;;;17.50;99.90;;;;;;1904522;75;21161;-83
2023/10/01 00:54:36;;;;;;;9.45;4.92;;;17.50;99.90;;;;;;1904876;75;21118;-84
2023/10/01 00:57:28;;;;;;;9.08;4.65;;;17.60;99.90;;;;;;1904962;75;21132;-85
2023/10/01 01:00:20;;;;;;;9.28;4.80;;;17.60;99.90;;;;;;1904625;75;22211;-83
2023/10/01 01:03:19;;;;;;;10.68;5.28;;;17.50;99.90;;;;;;1904635;75;21111;-83
2023/10/01 01:06:17;;;;;;;9.03;5.03;;;17.50;99.90;;;;;;1904947;75;21156;-84
2023/10/01 01:09:13;;;;;;;10.58;5.53;;;17.50;99.90;;;;;;1904589;75;21095;-83
2023/10/01 01:12:05;;;;;;;8.85;4.90;;;17.40;99.90;;;;;;1904724;75;21095;-85
2023/10/01 01:14:58;;;;;;;8.80;4.97;;;17.30;99.90;;;;;;1905043;75;21095;-84
2023/10/01 01:17:50;;;;;;;7.33;4.90;;;17.30;99.90;;;;;;1904900;75;21083;-83
2023/10/01 01:20:45;;;;;;;10.03;5.50;;;17.20;99.90;;;;;;1904307;75;21167;-84
2023/10/01 01:23:37;;;;;;;10.08;5.15;;;17.10;99.90;;;;;;1864563;75;21066;-83
2023/10/01 01:26:29;;;;;;;8.43;5.12;;;17.10;99.90;;;;;;1859670;76;21192;-84
2023/10/01 01:29:29;;;;;;;12.55;4.87;;;17.10;99.90;;;;;;1859972;77;21219;-84
2023/10/01 01:32:14;;;;;;;12.23;5.17;;;17.00;99.90;;;;;;1859739;77;21227;-84
2023/10/01 01:35:10;;;;;;;8.65;4.80;;;17.00;99.90;;;;;;1860038;77;21100;-83
2023/10/01 01:38:00;;;;;;;8.33;4.33;;;17.00;99.90;;;;;;1859739;77;21113;-83
2023/10/01 01:40:52;;;;;;;10.18;4.90;;;17.00;99.90;;;;;;1859659;77;21173;-83
2023/10/01 01:43:46;;;;;;;8.28;5.00;;;17.00;99.90;;;;;;1859720;77;21232;-83
2023/10/01 01:46:47;;;;;;;11.48;5.15;;;17.00;99.90;;;;;;1859482;77;21122;-83
2023/10/01 01:49:30;;;;;;;9.55;4.85;;;16.90;99.90;;;;;;1859873;77;21553;-83
2023/10/01 01:52:21;;;;;;;10.10;5.55;;;16.90;99.90;;;;;;1859609;77;21066;-83
2023/10/01 01:55:23;;;;;;;9.28;4.97;;;16.90;99.90;;;;;;1859688;77;21150;-84
2023/10/01 01:58:08;;;;;;;10.25;4.90;;;16.90;99.90;;;;;;1859705;77;21176;-83
2023/10/01 02:01:18;;;;;;;11.28;5.08;;;16.80;99.90;;;;;;1859567;77;21581;-83
2023/10/01 02:04:04;;;;;;;9.58;5.30;;;16.70;99.90;;;;;;1859656;77;21090;-84
2023/10/01 02:06:59;;;;;;;11.60;5.33;;;16.70;99.90;;;;;;1859654;77;21146;-84
2023/10/01 02:09:51;;;;;;;10.63;5.08;;;16.70;99.90;;;;;;1859550;77;21155;-84
2023/10/01 02:12:43;;;;;;;9.18;5.00;;;16.70;99.90;;;;;;1859354;77;21066;-83
2023/10/01 02:15:35;;;;;;;10.03;4.87;;;16.70;99.90;;;;;;1858982;77;21098;-84
2023/10/01 02:18:27;;;;;;;9.10;5.05;;;16.70;99.90;;;;;;1859212;77;21179;-84
2023/10/01 02:21:18;;;;;;;10.18;5.08;;;16.70;99.90;;;;;;1859587;77;21109;-84
2023/10/01 02:24:12;;;;;;;10.80;5.45;;;16.70;99.90;;;;;;1871985;77;21164;-83
2023/10/01 02:27:05;;;;;;;9.80;4.80;;;16.70;99.90;;;;;;1871229;76;21123;-84
2023/10/01 02:30:14;;;;;;;10.20;4.90;;;16.70;99.90;;;;;;1875281;76;21092;-84
2023/10/01 02:33:18;;;;;;;9.33;5.08;;;16.70;99.90;;;;;;1876368;76;21102;-84
2023/10/01 02:36:12;;;;;;;9.38;5.30;;;16.70;99.90;;;;;;1840411;78;21140;-84
2023/10/01 02:39:11;;;;;;;8.20;4.97;;;16.70;99.90;;;;;;1874506;76;21095;-84
2023/10/01 02:42:10;;;;;;;9.63;4.97;;;16.70;99.90;;;;;;1872583;76;21161;-84
2023/10/01 02:45:04;;;;;;;9.88;5.35;;;16.70;99.90;;;;;;1872509;76;21095;-83
2023/10/01 02:48:13;;;;;;;9.38;4.85;;;16.70;99.90;;;;;;1874589;76;21111;-84
2023/10/01 02:50:52;;;;;;;10.70;5.20;;;16.70;99.90;;;;;;1873301;76;21067;-84
2023/10/01 02:54:01;;;;;;;9.63;5.08;;;16.70;99.90;;;;;;1874090;76;21181;-84
2023/10/01 02:56:52;;;;;;;11.55;5.62;;;16.70;99.90;;;;;;1872734;76;21139;-84
2023/10/01 02:59:32;;;;;;;10.05;5.17;;;16.70;99.90;;;;;;1875377;76;21144;-83
2023/10/01 03:02:24;;;;;;;10.10;4.72;;;16.70;99.90;;;;;;1872699;76;21131;-83
2023/10/01 03:05:28;;;;;;;9.58;4.92;;;16.60;99.90;;;;;;1871760;76;21177;-86
2023/10/01 03:08:26;;;;;;;10.43;5.55;;;16.50;99.90;;;;;;1872973;76;21173;-84
2023/10/01 03:11:08;;;;;;;9.80;5.40;;;16.50;99.90;;;;;;1875575;76;21154;-84
2023/10/01 03:14:05;;;;;;;9.90;5.10;;;16.50;99.90;;;;;;1841592;78;21109;-84
2023/10/01 03:16:54;;;;;;;12.75;5.33;;;16.40;99.90;;;;;;1872154;76;21110;-83
2023/10/01 03:19:52;;;;;;;9.08;5.15;;;16.30;99.90;;;;;;1871524;76;21171;-83
2023/10/01 03:22:39;;;;;;;9.20;5.28;;;16.30;99.90;;;;;;1874095;76;21174;-83
2023/10/01 03:25:41;;;;;;;9.28;5.08;;;16.30;99.90;;;;;;1838820;78;21168;-83
2023/10/01 03:29:14;;;;;;;8.95;4.80;;;16.30;99.90;;;;;;1872976;76;21098;-83
2023/10/01 03:31:28;;;;;;;8.45;4.65;;;16.30;99.90;;;;;;1862771;76;21140;-84
2023/10/01 03:34:29;;;;;;;9.03;4.70;;;16.30;99.90;;;;;;1841655;78;21175;-84
2023/10/01 03:37:27;;;;;;;9.60;4.65;;;16.30;99.90;;;;;;1871949;76;21176;-84
2023/10/01 03:40:22;;;;;;;10.40;5.33;;;16.30;99.90;;;;;;1836781;78;21246;-84
2023/10/01 03:43:18;;;;;;;9.28;4.60;;;16.20;99.90;;;;;;1872085;77;21115;-84
2023/10/01 03:46:13;;;;;;;8.53;4.67;;;16.30;99.90;;;;;;1872220;77;21115;-84
2023/10/01 03:52:14;;;;;;;10.65;5.42;;;16.20;99.90;;;;;;1872070;77;21075;-84
2023/10/01 03:55:25;;;;;;;9.65;5.12;;;16.20;99.90;;;;;;1872053;77;21630;-84
2023/10/01 03:58:18;;;;;;;10.50;5.10;;;16.20;99.90;;;;;;1837170;78;21161;-84
2023/10/01 04:01:16;;;;;;;9.55;5.03;;;16.20;99.90;;;;;;1872084;77;21145;-84
2023/10/01 04:04:00;;;;;;;9.13;4.75;;;16.20;99.90;;;;;;1837066;78;21125;-84
2023/10/01 04:06:52;;;;;;;10.25;4.95;;;16.20;99.90;;;;;;1872037;77;21200;-84
2023/10/01 04:09:46;;;;;;;13.70;5.17;;;16.20;99.90;;;;;;1871605;77;21063;-83
2023/10/01 04:12:37;;;;;;;10.05;5.10;;;16.10;99.90;;;;;;1871926;77;21137;-84
2023/10/01 04:15:29;;;;;;;12.28;5.50;;;16.10;99.90;;;;;;1871711;77;21106;-84
2023/10/01 04:18:21;;;;;;;9.63;5.00;;;16.10;99.90;;;;;;1871991;77;21160;-83
2023/10/01 04:21:24;;;;;;;11.00;5.50;;;16.10;99.90;;;;;;1872235;77;21579;-86
2023/10/01 04:24:13;;;;;;;12.47;5.15;;;15.90;99.90;;;;;;1872095;77;21168;-84
2023/10/01 04:27:18;;;;;;;8.98;5.15;;;15.90;99.90;;;;;;1872181;75;21098;-84
2023/10/01 04:30:00;;;;;;;9.95;5.15;;;15.90;99.90;;;;;;1872325;77;21075;-84
2023/10/01 04:32:51;;;;;;;11.30;5.15;;;15.90;99.90;;;;;;1872224;77;21091;-84
2023/10/01 04:35:51;;;;;;;10.58;5.47;;;15.80;99.90;;;;;;1871868;77;21151;-83
2023/10/01 04:38:36;;;;;;;10.00;5.17;;;16.00;99.90;;;;;;1872186;77;21172;-84
2023/10/01 04:41:28;;;;;;;9.33;5.40;;;16.00;99.90;;;;;;1871958;77;21055;-84
2023/10/01 04:44:22;;;;;;;11.97;5.30;;;16.00;99.90;;;;;;1871698;77;21171;-84
2023/10/01 04:47:30;;;;;;;8.58;5.20;;;15.90;99.90;;;;;;1871418;77;21136;-84
2023/10/01 04:50:20;;;;;;;10.32;5.45;;;15.90;99.90;;;;;;1872142;77;21184;-84
2023/10/01 04:53:13;;;;;;;10.82;4.78;;;15.90;99.90;;;;;;1871865;77;21200;-84
2023/10/01 04:56:06;;;;;;;11.28;5.15;;;15.90;99.90;;;;;;1871788;77;21226;-84
2023/10/01 04:58:58;;;;;;;9.30;5.12;;;15.90;99.90;;;;;;1872058;77;21183;-84
2023/10/01 05:01:56;;;;;;;12.80;5.60;;;15.80;99.90;;;;;;1872102;77;21160;-83
2023/10/01 05:04:43;;;;;;;10.93;5.40;;;15.70;99.90;;;;;;1872169;77;21071;-84
2023/10/01 05:07:34;;;;;;;8.40;5.03;;;15.70;99.90;;;;;;1871904;77;21106;-83
2023/10/01 05:10:26;;;;;;;9.80;5.40;;;15.70;99.90;;;;;;1872059;76;21530;-84
2023/10/01 05:13:20;;;;;;;9.85;5.53;;;15.60;99.90;;;;;;1872337;77;21121;-84
2023/10/01 05:16:13;;;;;;;10.60;5.20;;;15.60;99.90;;;;;;1872142;77;21059;-84
2023/10/01 05:19:10;;;;;;;11.12;5.42;;;15.60;99.90;;;;;;1872024;76;21129;-84
2023/10/01 05:22:02;;;;;;;12.37;5.12;;;15.70;99.90;;;;;;1872208;77;21180;-84
2023/10/01 05:24:54;;;;;;;8.85;5.05;;;15.70;99.90;;;;;;1871949;77;21099;-84
2023/10/01 05:27:46;;;;;;;11.18;5.30;;;15.60;99.90;;;;;;1872102;77;21168;-84
2023/10/01 05:30:39;;;;;;;11.03;5.42;;;15.60;99.90;;;;;;1871929;76;21388;-84
2023/10/01 05:33:32;;;;;;;10.38;4.92;;;15.60;99.90;;;;;;1872092;77;21221;-83
2023/10/01 05:36:24;;;;;;;8.78;4.87;;;15.60;99.90;;;;;;1872109;77;21132;-85
2023/10/01 05:39:16;;;;;;;9.28;5.00;;;15.70;99.90;;;;;;1872059;77;21111;-86
2023/10/01 05:42:09;;;;;;;9.48;5.03;;;15.60;99.90;;;;;;1872293;76;21110;-85
2023/10/01 05:45:04;;;;;;;11.05;5.55;;;15.60;99.90;;;;;;1872113;77;21159;-83
2023/10/01 05:47:54;;;;;;;10.45;5.72;;;15.70;99.90;;;;;;1872034;77;21167;-85
2023/10/01 05:50:47;;;;;;;10.75;5.30;;;15.70;99.90;;;;;;1872201;76;21165;-84
2023/10/01 05:53:38;;;;;;;11.38;5.80;;;15.60;99.90;;;;;;1872098;77;21164;-84
2023/10/01 05:56:36;;;;;;;12.28;5.53;;;15.50;99.90;;;;;;1872130;76;21369;-83
2023/10/01 05:59:23;;;;;;;9.15;5.80;;;15.40;99.90;;;;;;1872085;77;21172;-84
2023/10/01 06:02:31;;;;;;;10.85;5.62;;;15.50;99.90;;;;;;1872112;77;21127;-83
2023/10/01 06:05:22;;;;;;;10.48;5.33;;;15.50;99.90;;;;;;1871825;77;21064;-84
2023/10/01 06:08:12;;;;;;;8.85;5.12;;;15.50;99.90;;;;;;1872032;76;21577;-84
2023/10/01 06:11:05;;;;;;;10.65;5.15;;;15.60;99.90;;;;;;1872244;77;21534;-84
2023/10/01 06:13:57;;;;;;;10.28;5.17;;;15.60;99.90;;;;;;1872153;77;21584;-84
2023/10/01 06:16:49;;;;;;;10.00;4.87;;;15.70;99.90;;;;;;1871928;77;21193;-84
2023/10/01 06:19:42;;;;;;;11.00;5.17;;;15.70;99.90;;;;;;1871774;77;21152;-84
2023/10/01 06:22:33;;;;;;;9.70;5.15;;;15.60;99.90;;;;;;1886579;75;21111;-84
2023/10/01 06:25:40;;;;;;;10.13;4.87;;;15.60;99.90;;;;;;1903841;75;21099;-84
2023/10/01 06:28:31;;;;;;;8.80;4.60;;;15.50;99.90;;;;;;1903715;75;21128;-85
2023/10/01 06:31:23;;;;;;;8.83;4.97;;;15.60;99.90;;;;;;1908891;74;21134;-83
2023/10/01 06:34:15;;;;;;;9.08;4.90;;;15.60;99.90;;;;;;1872729;76;21658;-84
2023/10/01 06:37:12;;;;;;;9.15;5.17;;;15.60;99.90;;;;;;1908483;74;21350;-83
2023/10/01 06:40:29;;;;;;;11.57;5.35;;;15.70;99.90;;;;;;1872808;76;21097;-84
2023/10/01 06:42:56;;;;;;;9.45;5.10;;;15.70;99.90;;;;;;1908800;74;21219;-86
2023/10/01 06:45:49;;;;;;;9.95;5.47;;;15.70;99.90;;;;;;1908853;75;21107;-84
2023/10/01 06:48:42;;;;;;;9.33;5.25;;;15.70;99.90;;;;;;1872869;76;21184;-84
2023/10/01 06:51:43;;;;;;;10.13;5.67;;;15.70;99.90;;;;;;1909593;74;21099;-84
2023/10/01 06:54:33;;;;;;;12.05;5.50;;;15.70;99.90;;;;;;1909791;75;21169;-85
2023/10/01 06:57:27;;;;;;;9.13;5.20;;;15.80;99.90;;;;;;1909444;75;21165;-85
2023/10/01 07:00:22;;;;;;;11.68;5.83;;;15.90;99.90;;;;;;1909463;74;21114;-83
2023/10/01 07:03:18;;;;;;;8.70;5.47;;;16.00;99.90;;;;;;1909710;75;21099;-84
2023/10/01 07:06:11;;;;;;;12.15;6.58;;;15.90;99.90;;;;;;1872644;76;21608;-84
2023/10/01 07:09:06;;;;;;;11.85;6.17;;;16.00;99.90;;;;;;1910065;74;21581;-84
2023/10/01 07:11:57;;;;;;;10.35;6.20;;;16.00;99.90;;;;;;1910085;75;21580;-84
2023/10/01 07:14:50;;;;;;;10.43;6.17;;;16.10;99.90;;;;;;1909936;75;21465;-84
2023/10/01 07:17:42;;;;;;;11.97;6.35;;;16.20;99.90;;;;;;1909811;75;21059;-84
2023/10/01 07:20:33;;;;;;;8.28;5.53;;;16.20;99.90;;;;;;1912418;75;21184;-84
2023/10/01 07:23:24;;;;;;;10.90;6.15;;;16.30;99.90;;;;;;1872440;76;21201;-84
2023/10/01 07:26:16;;;;;;;10.93;6.28;;;16.30;99.90;;;;;;1859907;76;21123;-84
2023/10/01 07:29:08;;;;;;;10.13;5.47;;;16.40;99.90;;;;;;1909131;74;21051;-83
2023/10/01 07:32:00;;;;;;;10.15;5.05;;;16.40;99.90;;;;;;1904008;75;21126;-84
2023/10/01 07:34:55;;;;;;;9.70;5.40;;;16.50;99.90;;;;;;1904925;75;21114;-84
2023/10/01 07:37:48;;;;;;;11.18;5.45;;;16.50;99.90;;;;;;1905092;75;21158;-84
2023/10/01 07:40:57;;;;;;;9.95;5.45;;;16.60;99.90;;;;;;1906704;75;21575;-84
2023/10/01 07:43:45;;;;;;;8.48;5.05;;;16.70;99.90;;;;;;1906613;75;21108;-84
2023/10/01 07:46:37;;;;;;;9.75;5.00;;;16.80;99.90;;;;;;1907035;75;21168;-84
2023/10/01 07:49:44;;;;;;;9.48;5.28;;;16.90;99.90;;;;;;1907555;75;21495;-85
2023/10/01 07:52:21;;;;;;;9.30;5.00;;;17.00;99.90;;;;;;1908163;75;21143;-84
2023/10/01 07:55:35;;;;;;;10.05;5.20;;;17.00;99.90;;;;;;1904447;75;21145;-84
2023/10/01 07:58:34;;;;;;;10.00;5.45;;;17.10;99.90;;;;;;1905662;75;21456;-84
2023/10/01 08:04:57;;;;;;;10.20;5.53;;;17.30;99.90;;;;;;1903677;75;21128;-85
2023/10/01 08:07:44;;;;;;;9.40;5.35;;;17.30;99.90;;;;;;1904734;75;21176;-84
2023/10/01 08:10:37;;;;;;;11.40;5.35;;;17.40;99.90;;;;;;1904600;75;21582;-85
2023/10/01 08:13:30;;;;;;;9.88;5.12;;;17.50;99.90;;;;;;1904956;75;21094;-83
2023/10/01 08:16:22;;;;;;;9.03;5.10;;;17.50;99.90;;;;;;1906064;75;21151;-84
2023/10/01 08:19:14;;;;;;;10.15;5.55;;;17.60;99.90;;;;;;1904138;75;21103;-84
2023/10/01 08:22:13;;;;;;;8.45;4.87;;;17.70;99.90;;;;;;1907710;75;21087;-84
2023/10/01 08:25:01;;;;;;;12.00;5.40;;;17.80;99.90;;;;;;1906420;75;21067;-84
2023/10/01 08:28:26;;;;;;;10.03;5.70;;;17.90;99.90;;;;;;1905140;75;21099;-84
2023/10/01 08:31:42;;;;;;;10.90;5.60;;;17.90;99.90;;;;;;1907954;74;21131;-84
2023/10/01 08:34:22;;;;;;;7.85;5.08;;;18.00;99.90;;;;;;1904435;75;21175;-84
2023/10/01 08:36:54;;;;;;;9.73;5.10;;;18.10;99.90;;;;;;1905940;75;21160;-83
2023/10/01 08:39:48;;;;;;;9.68;4.80;;;18.20;99.90;;;;;;1906698;75;21051;-84
2023/10/01 08:42:43;;;;;;;8.80;5.03;;;18.20;99.90;;;;;;1906774;75;21103;-83
2023/10/01 08:45:38;;;;;;;9.45;5.45;;;18.30;99.90;;;;;;1906382;75;21169;-83
2023/10/01 08:48:36;;;;;;;8.65;5.53;;;18.40;99.90;;;;;;1904450;75;21099;-84
2023/10/01 08:51:23;;;;;;;9.55;5.10;;;18.50;99.90;;;;;;1903529;75;21153;-83
2023/10/01 08:54:17;;;;;;;9.68;4.78;;;18.60;99.90;;;;;;1904885;75;21169;-84
2023/10/01 08:57:15;;;;;;;9.90;5.37;;;18.60;99.90;;;;;;1905673;75;21106;-84
2023/10/01 09:00:14;;;;;;;9.95;5.15;;;18.70;99.90;;;;;;1907851;75;21102;-84
2023/10/01 09:03:10;;;;;;;8.40;4.78;;;18.80;99.90;;;;;;1908076;75;21099;-84
2023/10/01 09:06:01;;;;;;;8.68;5.35;;;18.90;99.90;;;;;;1908293;75;21153;-84
2023/10/01 09:08:48;;;;;;;9.53;5.50;;;19.00;99.90;;;;;;1910340;75;21067;-84
2023/10/01 09:11:43;;;;;;;9.45;5.12;;;19.10;99.90;;;;;;1906530;75;21184;-84
2023/10/01 09:14:39;;;;;;;9.53;5.20;;;19.20;99.90;;;;;;1903226;75;21072;-84
2023/10/01 09:17:40;;;;;;;8.78;5.40;;;19.20;99.90;;;;;;1906699;75;21115;-84
2023/10/01 09:20:42;;;;;;;10.85;4.97;;;19.30;99.90;;;;;;1905769;75;21172;-84
2023/10/01 09:23:55;;;;;;;11.73;5.22;;;19.40;99.90;;;;;;1877345;75;21102;-84
2023/10/01 09:26:56;;;;;;;9.90;5.47;;;19.50;99.90;;;;;;1860512;76;21137;-84
2023/10/01 09:29:48;;;;;;;11.50;6.12;;;19.60;99.90;;;;;;1862578;76;21133;-84
2023/10/01 09:32:50;;;;;;;8.95;5.12;;;19.70;99.90;;;;;;1868210;76;21153;-84
2023/10/01 09:35:49;;;;;;;8.95;5.53;;;19.70;99.90;;;;;;1868233;77;21152;-84
2023/10/01 09:38:57;;;;;;;9.78;5.35;;;19.80;99.90;;;;;;1867905;77;21066;-84
2023/10/01 09:41:43;;;;;;;9.10;4.97;;;19.90;99.90;;;;;;1868549;77;21203;-84
2023/10/01 09:44:46;;;;;;;10.85;5.90;;;20.00;99.90;;;;;;1867864;77;21089;-84
2023/10/01 09:47:30;;;;;;;9.55;5.87;;;20.10;99.90;;;;;;1868431;76;21200;-84
2023/10/01 09:50:23;;;;;;;8.33;4.62;;;20.10;99.90;;;;;;1867870;77;21125;-84
2023/10/01 09:53:16;;;;;;;8.58;5.25;;;20.20;99.90;;;;;;1865044;76;21569;-84
2023/10/01 09:59:39;;;;;;;8.90;5.15;;;20.40;99.90;;;;;;1872542;76;21620;-84
2023/10/01 10:02:27;;;;;;;9.83;5.22;;;20.50;99.90;;;;;;1893455;75;21204;-84
2023/10/01 10:05:26;;;;;;;8.65;4.62;;;20.50;99.90;;;;;;1905285;75;21667;-84
2023/10/01 10:08:26;;;;;;;8.15;5.67;;;20.60;99.90;;;;;;1907096;75;21099;-83
2023/10/01 10:11:24;;;;;;;10.28;5.25;;;20.70;99.90;;;;;;1907191;75;21095;-84
2023/10/01 10:14:58;;;;;;;11.03;5.90;;;20.80;99.90;;;;;;1908652;75;21103;-84
2023/10/01 10:18:15;;;;;;;9.05;5.45;;;20.90;99.90;;;;;;1890026;74;21055;-84
2023/10/01 10:21:04;;;;;;;10.00;5.90;;;21.00;99.90;;;;;;1905589;75;21087;-84
2023/10/01 10:23:56;;;;;;;11.12;5.47;;;21.10;99.90;;;;;;1905143;75;21107;-84
2023/10/01 10:26:57;;;;;;;9.38;5.55;;;21.30;99.90;;;;;;1906840;74;21169;-84
2023/10/01 10:30:16;;;;;;;8.23;5.33;;;21.40;99.90;;;;;;1905978;75;21149;-84
2023/10/01 10:33:43;;;;;;;9.53;5.62;;;21.50;99.90;;;;;;1907818;75;21108;-84
2023/10/01 10:36:50;;;;;;;8.35;4.97;;;21.50;99.90;;;;;;1908681;75;21202;-84
2023/10/01 10:40:22;;;;;;;11.18;5.65;;;21.50;99.90;;;;;;1904312;75;21383;-84
2023/10/01 10:43:21;;;;;;;9.10;5.87;;;21.60;99.90;;;;;;1903929;75;21220;-84
2023/10/01 10:46:13;;;;;;;10.38;6.15;;;21.60;99.90;;;;;;1903653;75;21145;-84
2023/10/01 10:49:06;;;;;;;8.60;5.33;;;21.70;99.90;;;;;;1903896;75;21099;-84
2023/10/01 10:51:58;;;;;;;7.67;4.80;;;21.70;99.90;;;;;;1904673;75;21169;-84
2023/10/01 10:54:51;;;;;;;8.55;5.47;;;21.80;99.90;;;;;;1906651;75;21110;-84
2023/10/01 10:57:48;;;;;;;12.53;5.60;;;21.90;99.90;;;;;;1905170;75;21091;-84
2023/10/01 11:00:40;;;;;;;8.40;5.12;;;22.00;99.90;;;;;;1906815;75;21100;-84
2023/10/01 11:03:41;;;;;;;9.58;5.78;;;22.00;99.90;;;;;;1905373;75;21135;-84
2023/10/01 11:06:40;;;;;;;8.40;4.75;;;22.10;99.90;;;;;;1904778;75;21087;-84
2023/10/01 11:09:32;;;;;;;6.92;4.87;;;22.20;99.90;;;;;;1903752;75;21107;-84
2023/10/01 11:12:30;;;;;;;9.85;5.25;;;22.30;99.90;;;;;;1904645;75;21113;-83
2023/10/01 11:15:24;;;;;;;8.95;5.40;;;22.40;99.90;;;;;;1906007;75;21107;-84
2023/10/01 11:18:16;;;;;;;9.25;5.00;;;22.50;99.90;;;;;;1904415;75;21149;-84
2023/10/01 11:21:13;;;;;;;8.48;5.35;;;22.50;99.90;;;;;;1906177;75;21176;-84
2023/10/01 11:24:05;;;;;;;10.43;5.00;;;22.60;99.90;;;;;;1903457;75;21099;-84
2023/10/01 11:27:18;;;;;;;9.43;5.28;;;22.70;99.90;;;;;;1909576;75;21115;-84
2023/10/01 11:30:16;;;;;;;9.53;5.60;;;22.70;99.90;;;;;;1904613;75;21103;-84
2023/10/01 11:33:16;;;;;;;9.20;5.30;;;22.80;99.90;;;;;;1904396;75;21093;-84
2023/10/01 11:36:07;;;;;;;8.10;4.83;;;22.90;99.90;;;;;;1904298;75;21169;-84
2023/10/01 11:39:03;;;;;;;7.78;4.70;;;22.90;99.90;;;;;;1904264;75;21128;-86
2023/10/01 11:41:54;;;;;;;9.85;5.45;;;23.00;99.90;;;;;;1903983;75;21151;-84
2023/10/01 11:44:52;;;;;;;9.10;5.45;;;22.90;99.90;;;;;;1903938;75;21116;-85
2023/10/01 11:48:04;;;;;;;8.48;4.62;;;23.00;99.90;;;;;;1904323;75;21132;-85
2023/10/01 11:50:50;;;;;;;7.95;5.05;;;23.00;99.90;;;;;;1904192;75;21197;-84
2023/10/01 11:54:07;;;;;;;7.85;5.30;;;23.10;99.90;;;;;;1904357;75;21142;-84
2023/10/01 11:57:04;;;;;;;9.55;5.65;;;23.20;99.90;;;;;;1904192;75;21214;-83
2023/10/01 11:59:46;;;;;;;8.05;5.33;;;23.20;99.90;;;;;;1904311;75;21059;-84
2023/10/01 12:02:44;;;;;;;8.55;5.37;;;23.30;99.90;;;;;;1904124;75;21095;-84
2023/10/01 12:05:41;;;;;;;8.23;4.85;;;23.50;99.90;;;;;;1890378;75;21177;-84
2023/10/01 12:08:35;;;;;;;8.50;5.20;;;23.50;99.90;;;;;;1859595;77;21569;-83
2023/10/01 12:11:28;;;;;;;7.08;4.60;;;23.60;99.90;;;;;;1859319;77;21121;-82
2023/10/01 12:14:20;;;;;;;9.40;5.03;;;23.60;99.90;;;;;;1859749;77;21525;-83
2023/10/01 12:17:13;;;;;;;9.00;5.20;;;23.70;99.90;;;;;;1859822;77;21109;-83
2023/10/01 12:20:21;;;;;;;9.35;5.35;;;23.70;99.90;;;;;;1865690;75;21062;-83
2023/10/01 12:23:10;;;;;;;7.75;5.03;;;23.80;99.90;;;;;;1872108;77;21099;-85
2023/10/01 12:26:31;;;;;;;7.62;4.85;;;24.00;99.90;;;;;;1871994;77;21196;-83
2023/10/01 12:32:02;;;;;;;9.55;5.50;;;24.00;99.90;;;;;;1871823;77;21188;-84
2023/10/01 12:34:57;;;;;;;8.45;5.22;;;24.00;99.90;;;;;;1881098;75;21127;-84
2023/10/01 12:37:47;;;;;;;9.53;5.67;;;24.00;99.90;;;;;;1904621;75;21149;-84
2023/10/01 12:40:40;;;;;;;9.15;5.97;;;24.00;99.90;;;;;;1867471;77;21106;-84
2023/10/01 12:43:39;;;;;;;10.98;5.90;;;24.10;99.90;;;;;;1904572;75;21101;-84
2023/10/01 12:46:31;;;;;;;8.90;5.30;;;24.20;99.90;;;;;;1904456;75;21103;-85
2023/10/01 12:49:23;;;;;;;7.35;4.87;;;24.20;99.90;;;;;;1867417;77;21127;-83
2023/10/01 12:52:15;;;;;;;10.32;6.00;;;24.20;99.90;;;;;;1904396;75;21117;-84
2023/10/01 12:55:09;;;;;;;7.97;5.30;;;24.20;99.90;;;;;;1904320;75;21160;-83
2023/10/01 12:58:01;;;;;;;9.70;5.55;;;24.30;99.90;;;;;;1867416;77;21587;-85
2023/10/01 13:00:53;;;;;;;9.45;5.42;;;24.40;99.90;;;;;;1904132;75;21590;-85
2023/10/01 13:03:45;;;;;;;8.65;5.95;;;24.50;99.90;;;;;;1867130;77;21106;-86
2023/10/01 13:06:39;;;;;;;9.10;5.87;;;24.50;99.90;;;;;;1904116;75;21172;-84
2023/10/01 13:09:53;;;;;;;8.48;5.85;;;24.40;99.90;;;;;;1903963;75;21095;-84
2023/10/01 13:12:31;;;;;;;9.38;6.20;;;24.50;99.90;;;;;;1867230;77;21534;-84
2023/10/01 13:15:29;;;;;;;9.75;5.72;;;24.60;99.90;;;;;;1904174;75;21177;-85
2023/10/01 13:18:19;;;;;;;8.15;5.05;;;24.70;99.90;;;;;;1904161;75;21080;-84
2023/10/01 13:21:11;;;;;;;9.23;5.90;;;24.80;99.90;;;;;;1867497;77;21071;-84
2023/10/01 13:24:07;;;;;;;7.80;5.42;;;24.90;99.90;;;;;;1904513;75;21139;-85
2023/10/01 13:27:10;;;;;;;8.65;5.75;;;25.00;99.90;;;;;;1904393;75;21119;-84
2023/10/01 13:29:49;;;;;;;10.58;6.40;;;25.00;99.90;;;;;;1867540;77;21200;-84
2023/10/01 13:32:57;;;;;;;8.68;5.35;;;25.00;99.90;;;;;;1904517;75;21091;-84
2023/10/01 13:35:36;;;;;;;9.18;6.35;;;25.00;99.90;;;;;;1904797;74;21205;-84
2023/10/01 13:38:37;;;;;;;10.85;6.12;;;25.10;99.90;;;;;;1905355;75;21125;-84
2023/10/01 14:09:58;;;;;;;10.93;6.90;;;26.90;99.90;;;;;;1905346;75;21117;-85
2023/10/01 14:13:00;;;;;;;9.40;6.42;;;27.70;99.90;;;;;;1905307;75;21091;-84
2023/10/01 14:15:51;;;;;;;9.85;6.70;;;28.30;99.90;;;;;;1869210;77;21092;-84
2023/10/01 14:18:53;;;;;;;11.20;6.90;;;28.70;99.90;;;;;;1905365;75;21535;-84
2023/10/01 14:21:37;;;;;;;10.68;6.90;;;28.90;99.90;;;;;;1905828;75;21099;-84
2023/10/01 14:24:29;;;;;;;12.05;7.58;;;29.30;99.90;;;;;;1905570;75;21087;-85
2023/10/01 14:27:30;;;;;;;10.90;6.80;;;29.00;99.90;;;;;;1905336;75;21098;-84
2023/10/01 14:30:24;;;;;;;9.88;6.95;;;29.50;99.90;;;;;;1905086;75;21128;-84
2023/10/01 14:33:25;;;;;;;9.73;6.58;;;29.70;99.90;;;;;;1869204;77;21050;-84
2023/10/01 14:36:20;;;;;;;9.05;6.42;;;29.90;99.90;;;;;;1905417;75;21139;-84
2023/10/01 14:39:12;;;;;;;10.30;7.12;;;29.80;99.90;;;;;;1904651;75;21492;-85
2023/10/01 14:42:05;;;;;;;10.13;7.00;;;28.60;99.90;;;;;;1904457;75;21194;-84
2023/10/01 14:45:04;;;;;;;9.15;6.80;;;27.50;99.90;;;;;;1904532;75;21172;-84
2023/10/01 14:47:49;;;;;;;10.55;6.90;;;27.00;99.90;;;;;;1868035;77;21090;-84
2023/10/01 14:50:41;;;;;;;9.08;6.50;;;26.90;99.90;;;;;;1904533;75;21142;-84
2023/10/01 14:53:36;;;;;;;10.78;7.53;;;26.70;99.90;;;;;;1867767;77;21110;-84
2023/10/01 14:56:30;;;;;;;9.53;6.90;;;26.60;99.90;;;;;;1904381;75;21052;-84
2023/10/01 14:59:20;;;;;;;9.10;6.70;;;27.10;99.90;;;;;;1904398;75;21126;-84
2023/10/01 15:02:15;;;;;;;9.53;6.45;;;28.70;99.90;;;;;;1904668;75;21087;-85
2023/10/01 15:05:10;;;;;;;11.45;7.20;;;29.60;99.90;;;;;;1904701;75;21051;-84
2023/10/01 15:08:00;;;;;;;10.00;7.05;;;30.70;99.90;;;;;;1904251;75;21165;-85
2023/10/01 15:10:51;;;;;;;8.93;6.37;;;30.50;99.00;;;;;;1904387;75;21555;-85
2023/10/01 15:13:43;;;;;;;8.58;6.60;;;30.60;98.40;;;;;;1904214;75;21122;-85
2023/10/01 15:16:38;;;;;;;10.60;6.80;;;30.90;98.20;;;;;;1904603;75;21124;-84
2023/10/01 15:19:46;;;;;;;9.38;7.33;;;31.60;97.30;;;;;;1904630;75;21110;-84
2023/10/01 15:22:27;;;;;;;11.05;7.35;;;32.40;96.20;;;;;;1904895;75;21100;-84
2023/10/01 15:25:18;;;;;;;10.40;6.78;;;33.10;95.00;;;;;;1904413;75;21149;-85
2023/10/01 15:28:10;;;;;;;10.20;7.10;;;33.60;92.60;;;;;;1904485;75;21103;-85
2023/10/01 15:31:01;;;;;;;10.43;7.00;;;33.40;91.70;;;;;;1904361;75;21060;-84
2023/10/01 15:34:00;;;;;;;9.05;6.80;;;33.10;91.40;;;;;;1904148;75;21115;-85
2023/10/01 15:36:52;;;;;;;10.23;7.22;;;32.80;91.10;;;;;;1904464;75;21167;-84
2023/10/01 15:39:45;;;;;;;9.45;7.12;;;32.50;90.90;;;;;;1904442;75;21102;-84
2023/10/01 15:42:38;;;;;;;9.88;7.10;;;32.30;90.80;;;;;;1904404;75;21118;-85
2023/10/01 15:45:30;;;;;;;11.38;7.70;;;32.00;91.10;;;;;;1904564;75;21123;-85
2023/10/01 15:48:22;;;;;;;10.50;6.92;;;32.10;90.90;;;;;;1904402;75;21095;-85